createdAt,value
2017-07-01T00:00:09.529Z,0
2017-07-01T00:00:49.954Z,0
2017-07-01T00:01:30.357Z,0
2017-07-01T00:02:10.798Z,0
2017-07-01T00:02:51.275Z,0
2017-07-01T00:03:31.770Z,0
2017-07-01T00:04:12.227Z,0
2017-07-01T00:04:52.732Z,0
2017-07-01T00:05:33.195Z,0
2017-07-01T00:06:13.686Z,0
2017-07-01T00:06:54.197Z,0
2017-07-01T00:09:12.041Z,0
2017-07-01T00:09:52.547Z,0
2017-07-01T00:10:33.004Z,0
2017-07-01T00:11:13.495Z,0
2017-07-01T00:11:53.958Z,0
2017-07-01T00:12:34.386Z,0
2017-07-01T00:13:14.822Z,0
2017-07-01T00:13:55.282Z,0
2017-07-01T00:14:35.748Z,0
2017-07-01T00:15:16.186Z,0
2017-07-01T00:15:56.621Z,0
2017-07-01T00:16:37.165Z,0
2017-07-01T00:17:17.569Z,0
2017-07-01T00:17:58.032Z,0
2017-07-01T00:18:38.538Z,0
2017-07-01T00:19:18.991Z,0
2017-07-01T00:19:59.413Z,0
2017-07-01T00:20:39.873Z,0
2017-07-01T00:21:20.337Z,0
2017-07-01T00:22:00.766Z,0
2017-07-01T00:22:41.239Z,0
2017-07-01T00:23:21.690Z,0
2017-07-01T00:24:02.187Z,0
2017-07-01T00:24:42.613Z,0
2017-07-01T00:25:23.081Z,0
2017-07-01T00:26:03.530Z,0
2017-07-01T00:26:43.956Z,0
2017-07-01T00:27:24.429Z,0
2017-07-01T00:28:04.858Z,0
2017-07-01T00:28:45.292Z,0
2017-07-01T00:29:25.720Z,0
2017-07-01T00:30:06.188Z,0
2017-07-01T00:30:46.593Z,0
2017-07-01T00:31:27.037Z,0
2017-07-01T00:32:07.491Z,0
2017-07-01T00:34:25.256Z,0
2017-07-01T00:35:05.723Z,0
2017-07-01T00:35:46.234Z,0
2017-07-01T00:36:26.700Z,0
2017-07-01T00:37:07.210Z,0
2017-07-01T00:37:47.642Z,0
2017-07-01T00:38:28.114Z,0
2017-07-01T00:39:08.683Z,0
2017-07-01T00:39:49.125Z,0
2017-07-01T00:40:29.727Z,0
2017-07-01T00:41:10.109Z,0
2017-07-01T00:41:50.572Z,0
2017-07-01T00:42:30.994Z,0
2017-07-01T00:43:11.460Z,0
2017-07-01T00:43:51.918Z,0
2017-07-01T00:44:32.403Z,0
2017-07-01T00:45:12.844Z,0
2017-07-01T00:45:53.352Z,0
2017-07-01T00:46:33.823Z,0
2017-07-01T00:47:14.258Z,0
2017-07-01T00:49:42.313Z,0
2017-07-01T00:50:22.729Z,0
2017-07-01T00:51:03.195Z,0
2017-07-01T00:51:43.617Z,0
2017-07-01T00:52:24.111Z,0
2017-07-01T00:53:04.519Z,0
2017-07-01T00:53:44.962Z,0
2017-07-01T00:56:02.804Z,0
2017-07-01T00:56:43.303Z,0
2017-07-01T00:57:23.769Z,0
2017-07-01T00:58:04.233Z,0
2017-07-01T00:58:44.720Z,0
2017-07-01T00:59:25.196Z,0
2017-07-01T01:00:05.690Z,0
2017-07-01T01:00:46.197Z,0
2017-07-01T01:01:26.599Z,0
2017-07-01T01:02:07.080Z,0
2017-07-01T01:02:47.567Z,0
2017-07-01T01:03:28.022Z,0
2017-07-01T01:04:08.501Z,0
2017-07-01T01:04:48.944Z,0
2017-07-01T01:05:29.406Z,0
2017-07-01T01:06:09.868Z,0
2017-07-01T01:06:50.322Z,0
2017-07-01T01:07:30.745Z,0
2017-07-01T01:08:11.246Z,0
2017-07-01T01:08:51.790Z,0
2017-07-01T01:09:32.357Z,0
2017-07-01T01:10:12.823Z,0
2017-07-01T01:10:53.322Z,0
2017-07-01T01:11:33.743Z,0
2017-07-01T01:12:14.145Z,0
2017-07-01T01:12:54.601Z,0
2017-07-01T01:13:35.049Z,0
2017-07-01T01:14:15.529Z,0
2017-07-01T01:14:55.981Z,0
2017-07-01T01:15:36.445Z,0
2017-07-01T01:16:16.894Z,0
2017-07-01T01:16:57.342Z,0
2017-07-01T01:17:37.808Z,0
2017-07-01T01:18:18.448Z,0
2017-07-01T01:18:58.819Z,0
2017-07-01T01:19:39.248Z,0
2017-07-01T01:20:19.694Z,0
2017-07-01T01:21:00.129Z,0
2017-07-01T01:21:40.596Z,0
2017-07-01T01:22:21.028Z,0
2017-07-01T01:23:01.516Z,0
2017-07-01T01:23:41.974Z,0
2017-07-01T01:24:22.381Z,0
2017-07-01T01:25:02.840Z,0
2017-07-01T01:25:43.313Z,0
2017-07-01T01:26:23.697Z,0
2017-07-01T01:27:04.213Z,0
2017-07-01T01:27:44.687Z,0
2017-07-01T01:28:25.142Z,0
2017-07-01T01:29:05.605Z,0
2017-07-01T01:29:46.054Z,0
2017-07-01T01:30:26.512Z,0
2017-07-01T01:31:06.964Z,0
2017-07-01T01:31:47.388Z,0
2017-07-01T01:32:27.828Z,0
2017-07-01T01:33:08.303Z,0
2017-07-01T01:33:48.720Z,0
2017-07-01T01:34:29.192Z,0
2017-07-01T01:35:09.675Z,0
2017-07-01T01:35:50.109Z,0
2017-07-01T01:36:30.580Z,0
2017-07-01T01:37:11.045Z,0
2017-07-01T01:39:44.061Z,0
2017-07-01T01:40:24.682Z,0
2017-07-01T01:41:05.135Z,0
2017-07-01T01:41:45.571Z,0
2017-07-01T01:42:25.990Z,0
2017-07-01T01:43:06.460Z,0
2017-07-01T01:43:46.910Z,0
2017-07-01T01:44:27.355Z,0
2017-07-01T01:45:07.800Z,0
2017-07-01T01:45:48.234Z,0
2017-07-01T01:46:28.653Z,0
2017-07-01T01:47:09.097Z,0
2017-07-01T01:47:49.571Z,0
2017-07-01T01:48:30.108Z,0
2017-07-01T01:49:10.489Z,0
2017-07-01T01:51:43.564Z,0
2017-07-01T01:52:24.010Z,0
2017-07-01T01:53:04.463Z,0
2017-07-01T01:53:44.888Z,0
2017-07-01T01:54:25.327Z,0
2017-07-01T01:55:05.744Z,0
2017-07-01T01:55:46.194Z,0
2017-07-01T01:56:26.622Z,0
2017-07-01T01:57:07.084Z,0
2017-07-01T01:57:47.549Z,0
2017-07-01T01:58:27.993Z,0
2017-07-01T01:59:08.442Z,0
2017-07-01T01:59:48.910Z,0
2017-07-01T02:00:29.316Z,0
2017-07-01T02:01:09.782Z,0
2017-07-01T02:01:50.274Z,0
2017-07-01T02:02:30.695Z,0
2017-07-01T02:03:11.139Z,0
2017-07-01T02:03:51.593Z,0
2017-07-01T02:04:32.046Z,0
2017-07-01T02:05:12.507Z,0
2017-07-01T02:05:52.920Z,0
2017-07-01T02:06:33.370Z,0
2017-07-01T02:07:13.802Z,0
2017-07-01T02:07:54.231Z,0
2017-07-01T02:08:34.684Z,0
2017-07-01T02:09:15.266Z,0
2017-07-01T02:09:55.647Z,0
2017-07-01T02:10:36.114Z,0
2017-07-01T02:11:16.545Z,0
2017-07-01T02:11:56.976Z,0
2017-07-01T02:12:37.411Z,0
2017-07-01T02:13:17.857Z,0
2017-07-01T02:13:58.300Z,0
2017-07-01T02:14:38.729Z,0
2017-07-01T02:15:19.176Z,0
2017-07-01T02:15:59.593Z,0
2017-07-01T02:16:40.098Z,0
2017-07-01T02:17:20.530Z,0
2017-07-01T02:18:00.949Z,0
2017-07-01T02:18:41.446Z,0
2017-07-01T02:19:21.894Z,0
2017-07-01T02:20:02.327Z,0
2017-07-01T02:20:42.758Z,0
2017-07-01T02:21:23.211Z,0
2017-07-01T02:22:03.646Z,0
2017-07-01T02:22:44.089Z,0
2017-07-01T02:23:24.522Z,0
2017-07-01T02:24:05.025Z,0
2017-07-01T02:24:45.479Z,0
2017-07-01T02:25:25.935Z,0
2017-07-01T02:26:06.407Z,0
2017-07-01T02:26:46.860Z,0
2017-07-01T02:27:27.324Z,0
2017-07-01T02:28:07.772Z,0
2017-07-01T02:28:48.234Z,0
2017-07-01T02:29:28.698Z,0
2017-07-01T02:30:09.141Z,0
2017-07-01T02:30:49.610Z,0
2017-07-01T02:31:30.058Z,0
2017-07-01T02:32:10.528Z,0
2017-07-01T02:32:50.985Z,0
2017-07-01T02:33:31.412Z,0
2017-07-01T02:34:11.847Z,0
2017-07-01T02:34:52.293Z,0
2017-07-01T02:35:32.739Z,0
2017-07-01T02:36:13.229Z,0
2017-07-01T02:36:53.632Z,0
2017-07-01T02:37:34.193Z,0
2017-07-01T02:38:14.607Z,0
2017-07-01T02:38:55.019Z,0
2017-07-01T02:39:35.558Z,0
2017-07-01T02:40:15.981Z,0
2017-07-01T02:40:56.438Z,0
2017-07-01T02:41:36.873Z,0
2017-07-01T02:42:17.354Z,0
2017-07-01T02:42:57.817Z,0
2017-07-01T02:43:38.253Z,0
2017-07-01T02:44:18.697Z,0
2017-07-01T02:44:59.188Z,0
2017-07-01T02:47:32.163Z,0
2017-07-01T02:48:12.610Z,0
2017-07-01T02:48:53.057Z,0
2017-07-01T02:49:33.494Z,0
2017-07-01T02:50:13.918Z,0
2017-07-01T02:50:54.348Z,0
2017-07-01T02:51:34.796Z,0
2017-07-01T02:52:15.266Z,0
2017-07-01T02:52:55.715Z,0
2017-07-01T02:53:36.172Z,0
2017-07-01T02:54:16.625Z,0
2017-07-01T02:54:57.115Z,0
2017-07-01T02:55:37.598Z,0
2017-07-01T02:56:17.957Z,0
2017-07-01T02:56:58.371Z,0
2017-07-01T02:57:38.814Z,4
2017-07-01T02:58:19.370Z,4
2017-07-01T02:58:59.757Z,4
2017-07-01T02:59:40.237Z,4
2017-07-01T03:00:20.612Z,4
2017-07-01T03:01:01.082Z,4
2017-07-01T03:01:41.536Z,8
2017-07-01T03:02:21.966Z,8
2017-07-01T03:03:02.417Z,8
2017-07-01T03:03:42.857Z,8
2017-07-01T03:04:23.331Z,8
2017-07-01T03:05:03.754Z,8
2017-07-01T03:05:44.277Z,8
2017-07-01T03:06:24.712Z,8
2017-07-01T03:07:05.174Z,12
2017-07-01T03:07:45.637Z,12
2017-07-01T03:08:26.250Z,16
2017-07-01T03:09:06.700Z,16
2017-07-01T03:09:47.155Z,12
2017-07-01T03:10:27.600Z,16
2017-07-01T03:11:08.070Z,20
2017-07-01T03:11:48.544Z,16
2017-07-01T03:12:28.999Z,24
2017-07-01T03:13:09.468Z,24
2017-07-01T03:13:49.894Z,32
2017-07-01T03:14:30.331Z,36
2017-07-01T03:15:10.772Z,40
2017-07-01T03:15:51.248Z,36
2017-07-01T03:18:09.068Z,40
2017-07-01T03:18:49.544Z,36
2017-07-01T03:19:29.978Z,36
2017-07-01T03:20:10.444Z,36
2017-07-01T03:20:50.893Z,36
2017-07-01T03:21:31.330Z,36
2017-07-01T03:22:11.848Z,48
2017-07-01T03:22:52.270Z,60
2017-07-01T03:23:32.704Z,72
2017-07-01T03:24:13.131Z,72
2017-07-01T03:24:53.562Z,72
2017-07-01T03:27:21.581Z,80
2017-07-01T03:28:02.077Z,76
2017-07-01T03:28:42.530Z,72
2017-07-01T03:29:22.960Z,68
2017-07-01T03:30:03.407Z,72
2017-07-01T03:30:43.834Z,92
2017-07-01T03:33:16.882Z,72
2017-07-01T03:33:57.329Z,76
2017-07-01T03:34:37.717Z,96
2017-07-01T03:35:18.210Z,92
2017-07-01T03:35:58.664Z,84
2017-07-01T03:36:39.129Z,88
2017-07-01T03:37:19.575Z,88
2017-07-01T03:38:00.005Z,80
2017-07-01T03:38:40.430Z,80
2017-07-01T03:39:20.880Z,88
2017-07-01T03:40:01.334Z,88
2017-07-01T03:40:41.806Z,80
2017-07-01T03:41:22.237Z,76
2017-07-01T03:42:02.683Z,88
2017-07-01T03:42:43.121Z,96
2017-07-01T03:43:23.537Z,104
2017-07-01T03:44:04.001Z,112
2017-07-01T03:44:44.444Z,124
2017-07-01T03:45:24.896Z,144
2017-07-01T03:46:05.341Z,176
2017-07-01T03:46:45.817Z,148
2017-07-01T03:47:26.265Z,108
2017-07-01T03:48:06.729Z,88
2017-07-01T03:50:04.368Z,156
2017-07-01T03:50:44.824Z,176
2017-07-01T03:51:25.245Z,168
2017-07-01T03:52:05.689Z,164
2017-07-01T03:52:46.164Z,168
2017-07-01T03:53:26.592Z,160
2017-07-01T03:54:07.070Z,176
2017-07-01T03:54:47.509Z,212
2017-07-01T03:55:27.961Z,280
2017-07-01T03:56:08.411Z,308
2017-07-01T03:56:48.843Z,308
2017-07-01T03:57:29.495Z,312
2017-07-01T03:58:09.766Z,288
2017-07-01T03:58:50.219Z,292
2017-07-01T03:59:30.702Z,288
2017-07-01T04:00:11.097Z,252
2017-07-01T04:00:51.574Z,212
2017-07-01T04:01:32.047Z,220
2017-07-01T04:02:12.515Z,236
2017-07-01T04:02:52.956Z,248
2017-07-01T04:03:33.412Z,280
2017-07-01T04:04:13.824Z,312
2017-07-01T04:04:54.258Z,340
2017-07-01T04:05:34.702Z,304
2017-07-01T04:06:15.200Z,292
2017-07-01T04:06:56.365Z,308
2017-07-01T04:07:36.801Z,324
2017-07-01T04:08:17.246Z,352
2017-07-01T04:08:57.712Z,416
2017-07-01T04:09:38.132Z,448
2017-07-01T04:10:18.585Z,452
2017-07-01T04:10:59.066Z,420
2017-07-01T04:11:39.487Z,400
2017-07-01T04:12:19.929Z,496
2017-07-01T04:13:00.381Z,508
2017-07-01T04:13:40.831Z,432
2017-07-01T04:14:21.286Z,404
2017-07-01T04:15:01.716Z,432
2017-07-01T04:15:42.227Z,456
2017-07-01T04:16:22.698Z,440
2017-07-01T04:17:03.135Z,464
2017-07-01T04:17:43.614Z,520
2017-07-01T04:18:24.079Z,528
2017-07-01T04:19:04.520Z,640
2017-07-01T04:19:44.972Z,700
2017-07-01T04:20:25.459Z,792
2017-07-01T04:21:05.882Z,836
2017-07-01T04:21:46.327Z,840
2017-07-01T04:22:26.802Z,788
2017-07-01T04:23:07.261Z,664
2017-07-01T04:23:47.720Z,508
2017-07-01T04:24:28.225Z,444
2017-07-01T04:25:08.702Z,436
2017-07-01T04:25:49.137Z,512
2017-07-01T04:26:29.613Z,564
2017-07-01T04:27:10.237Z,576
2017-07-01T04:27:50.771Z,560
2017-07-01T04:28:31.336Z,576
2017-07-01T04:29:11.807Z,580
2017-07-01T04:29:52.350Z,548
2017-07-01T04:30:33.046Z,528
2017-07-01T04:31:13.518Z,540
2017-07-01T04:31:53.944Z,544
2017-07-01T04:32:34.492Z,544
2017-07-01T04:33:14.872Z,612
2017-07-01T04:33:55.321Z,624
2017-07-01T04:34:35.758Z,704
2017-07-01T04:35:16.287Z,708
2017-07-01T04:35:56.753Z,564
2017-07-01T04:36:37.168Z,568
2017-07-01T04:37:17.717Z,688
2017-07-01T04:37:58.158Z,664
2017-07-01T04:40:26.061Z,636
2017-07-01T04:41:06.524Z,648
2017-07-01T04:41:46.927Z,612
2017-07-01T04:42:27.365Z,652
2017-07-01T04:43:07.834Z,712
2017-07-01T04:43:48.270Z,712
2017-07-01T04:44:28.716Z,688
2017-07-01T04:45:09.161Z,712
2017-07-01T04:45:49.670Z,776
2017-07-01T04:46:30.107Z,924
2017-07-01T04:47:10.497Z,1068
2017-07-01T04:47:50.958Z,1084
2017-07-01T04:48:31.453Z,1080
2017-07-01T04:49:11.840Z,1156
2017-07-01T04:49:52.327Z,1172
2017-07-01T04:50:32.795Z,1036
2017-07-01T04:51:13.251Z,1020
2017-07-01T04:51:53.708Z,1176
2017-07-01T04:52:34.221Z,1344
2017-07-01T04:53:14.614Z,1284
2017-07-01T04:53:55.102Z,1168
2017-07-01T04:54:35.505Z,1096
2017-07-01T04:55:15.973Z,996
2017-07-01T04:55:56.450Z,988
2017-07-01T04:56:36.948Z,1052
2017-07-01T04:57:17.429Z,1080
2017-07-01T04:57:57.874Z,1172
2017-07-01T04:58:38.345Z,1124
2017-07-01T04:59:18.772Z,1084
2017-07-01T04:59:59.224Z,1036
2017-07-01T05:02:12.015Z,948
2017-07-01T05:02:52.439Z,944
2017-07-01T05:03:32.934Z,1052
2017-07-01T05:04:13.363Z,1300
2017-07-01T05:04:53.863Z,1312
2017-07-01T05:05:34.277Z,1320
2017-07-01T05:07:31.928Z,1496
2017-07-01T05:08:12.423Z,1500
2017-07-01T05:08:52.905Z,1472
2017-07-01T05:09:33.399Z,1492
2017-07-01T05:10:13.865Z,1328
2017-07-01T05:10:54.337Z,1084
2017-07-01T05:11:34.825Z,1024
2017-07-01T05:12:15.314Z,1044
2017-07-01T05:12:55.794Z,928
2017-07-01T05:13:36.262Z,964
2017-07-01T05:14:16.719Z,1100
2017-07-01T05:14:57.189Z,1208
2017-07-01T05:15:37.640Z,1272
2017-07-01T05:16:18.105Z,1280
2017-07-01T05:18:15.771Z,1260
2017-07-01T05:18:56.166Z,1284
2017-07-01T05:19:36.640Z,1328
2017-07-01T05:20:17.079Z,1392
2017-07-01T05:20:57.497Z,1544
2017-07-01T05:21:37.958Z,1700
2017-07-01T05:22:18.453Z,1880
2017-07-01T05:22:58.921Z,2032
2017-07-01T05:23:39.356Z,2008
2017-07-01T05:24:19.756Z,1984
2017-07-01T05:25:00.190Z,2308
2017-07-01T05:25:40.634Z,2660
2017-07-01T05:26:21.136Z,2712
2017-07-01T05:27:01.604Z,2768
2017-07-01T05:27:42.078Z,2876
2017-07-01T05:28:22.545Z,2908
2017-07-01T05:29:02.959Z,2992
2017-07-01T05:31:20.803Z,3224
2017-07-01T05:32:01.265Z,3404
2017-07-01T05:32:41.794Z,3392
2017-07-01T05:33:22.489Z,3432
2017-07-01T05:34:02.839Z,3560
2017-07-01T05:34:43.271Z,3572
2017-07-01T05:37:01.263Z,4324
2017-07-01T05:37:41.783Z,4636
2017-07-01T05:38:22.234Z,4612
2017-07-01T05:39:02.733Z,4328
2017-07-01T05:39:43.213Z,4076
2017-07-01T05:40:23.716Z,4300
2017-07-01T05:41:04.137Z,4712
2017-07-01T05:41:44.590Z,5212
2017-07-01T05:42:25.046Z,5356
2017-07-01T05:43:05.465Z,5256
2017-07-01T05:43:45.884Z,5284
2017-07-01T05:44:26.327Z,5524
2017-07-01T05:45:06.762Z,5324
2017-07-01T05:45:47.224Z,5164
2017-07-01T05:46:27.672Z,5036
2017-07-01T05:47:08.145Z,4956
2017-07-01T05:47:48.574Z,4872
2017-07-01T05:48:29.016Z,4928
2017-07-01T05:49:09.519Z,5008
2017-07-01T05:49:49.942Z,5140
2017-07-01T05:50:30.351Z,5256
2017-07-01T05:51:10.825Z,5224
2017-07-01T05:51:51.361Z,5452
2017-07-01T05:52:31.783Z,5860
2017-07-01T05:53:12.215Z,6316
2017-07-01T05:53:52.627Z,6448
2017-07-01T05:54:33.061Z,6384
2017-07-01T05:55:13.541Z,6076
2017-07-01T05:55:53.997Z,5772
2017-07-01T05:56:34.416Z,5300
2017-07-01T05:57:14.897Z,4980
2017-07-01T05:57:55.347Z,4804
2017-07-01T05:58:35.774Z,4988
2017-07-01T05:59:16.219Z,5348
2017-07-01T05:59:56.667Z,5700
2017-07-01T06:00:37.208Z,6072
2017-07-01T06:01:17.670Z,6352
2017-07-01T06:01:58.073Z,6624
2017-07-01T06:02:38.531Z,6680
2017-07-01T06:03:18.956Z,6756
2017-07-01T06:03:59.439Z,7116
2017-07-01T06:04:39.857Z,7128
2017-07-01T06:05:20.318Z,6640
2017-07-01T06:06:00.790Z,5504
2017-07-01T06:06:41.210Z,4392
2017-07-01T06:07:21.671Z,3648
2017-07-01T06:08:02.377Z,3400
2017-07-01T06:08:42.896Z,3456
2017-07-01T06:09:23.357Z,3756
2017-07-01T06:10:03.812Z,4088
2017-07-01T06:12:21.675Z,6380
2017-07-01T06:13:02.096Z,7668
2017-07-01T06:13:42.547Z,8372
2017-07-01T06:14:22.986Z,8452
2017-07-01T06:15:03.414Z,8592
2017-07-01T06:15:43.828Z,8604
2017-07-01T06:16:24.284Z,8780
2017-07-01T06:18:37.079Z,9900
2017-07-01T06:19:17.525Z,9564
2017-07-01T06:19:58.049Z,8880
2017-07-01T06:20:38.445Z,7888
2017-07-01T06:21:18.924Z,6836
2017-07-01T06:21:59.358Z,6280
2017-07-01T06:22:39.801Z,6112
2017-07-01T06:23:20.293Z,6572
2017-07-01T06:24:00.723Z,7364
2017-07-01T06:24:41.183Z,7776
2017-07-01T06:25:21.593Z,7976
2017-07-01T06:26:02.063Z,8172
2017-07-01T06:26:42.511Z,7792
2017-07-01T06:27:22.934Z,7592
2017-07-01T06:28:03.424Z,7760
2017-07-01T06:28:43.859Z,8208
2017-07-01T06:29:24.327Z,8848
2017-07-01T06:30:04.764Z,8944
2017-07-01T06:30:45.229Z,8524
2017-07-01T06:31:25.664Z,8292
2017-07-01T06:32:06.084Z,8860
2017-07-01T06:32:46.543Z,9308
2017-07-01T06:33:26.998Z,9464
2017-07-01T06:34:07.439Z,8932
2017-07-01T06:34:47.884Z,8500
2017-07-01T06:35:28.401Z,8836
2017-07-01T06:36:08.816Z,9056
2017-07-01T06:36:49.318Z,8804
2017-07-01T06:37:29.788Z,8384
2017-07-01T06:39:42.498Z,9712
2017-07-01T06:40:22.944Z,11016
2017-07-01T06:41:03.374Z,12176
2017-07-01T06:41:43.863Z,12748
2017-07-01T06:42:24.316Z,13296
2017-07-01T06:43:04.749Z,14872
2017-07-01T06:45:22.597Z,15992
2017-07-01T06:46:03.049Z,16072
2017-07-01T06:46:43.569Z,16604
2017-07-01T06:47:24.050Z,23328
2017-07-01T06:48:04.510Z,14556
2017-07-01T06:48:44.962Z,13380
2017-07-01T06:49:25.492Z,12308
2017-07-01T06:50:06.058Z,12092
2017-07-01T06:50:46.517Z,11604
2017-07-01T06:51:27.058Z,10748
2017-07-01T06:52:07.483Z,10272
2017-07-01T06:52:47.928Z,9916
2017-07-01T06:53:28.388Z,9336
2017-07-01T06:54:08.830Z,10324
2017-07-01T06:54:49.270Z,10820
2017-07-01T06:55:29.722Z,11420
2017-07-01T06:56:10.171Z,12008
2017-07-01T06:56:50.607Z,12652
2017-07-01T06:57:31.045Z,12032
2017-07-01T06:58:11.721Z,10552
2017-07-01T06:58:52.158Z,9880
2017-07-01T06:59:32.639Z,10692
2017-07-01T07:00:13.078Z,11064
2017-07-01T07:00:53.481Z,11172
2017-07-01T07:01:33.975Z,11592
2017-07-01T07:02:14.372Z,14572
2017-07-01T07:02:54.809Z,19072
2017-07-01T07:03:35.248Z,14316
2017-07-01T07:04:15.642Z,13492
2017-07-01T07:04:56.147Z,13912
2017-07-01T07:05:36.607Z,14704
2017-07-01T07:06:17.089Z,13460
2017-07-01T07:06:57.549Z,12508
2017-07-01T07:07:38.018Z,13440
2017-07-01T07:08:18.475Z,13932
2017-07-01T07:08:58.944Z,13260
2017-07-01T07:09:39.380Z,12804
2017-07-01T07:10:19.819Z,13188
2017-07-01T07:11:00.262Z,13812
2017-07-01T07:11:40.736Z,15164
2017-07-01T07:12:21.146Z,17268
2017-07-01T07:13:01.638Z,17984
2017-07-01T07:13:42.125Z,17016
2017-07-01T07:14:22.499Z,16852
2017-07-01T07:15:02.940Z,16200
2017-07-01T07:15:43.398Z,16680
2017-07-01T07:16:23.895Z,13632
2017-07-01T07:17:04.346Z,14092
2017-07-01T07:17:44.803Z,15740
2017-07-01T07:18:25.264Z,18560
2017-07-01T07:19:05.718Z,19616
2017-07-01T07:19:46.210Z,19104
2017-07-01T07:21:58.920Z,19392
2017-07-01T07:22:39.381Z,19008
2017-07-01T07:23:19.871Z,21056
2017-07-01T07:24:00.307Z,21472
2017-07-01T07:24:40.735Z,22048
2017-07-01T07:25:21.383Z,42784
2017-07-01T07:26:01.904Z,28512
2017-07-01T07:26:42.335Z,34720
2017-07-01T07:27:22.789Z,38048
2017-07-01T07:28:03.227Z,34560
2017-07-01T07:28:43.670Z,29312
2017-07-01T07:29:24.250Z,26784
2017-07-01T07:30:04.704Z,25184
2017-07-01T07:30:45.187Z,22848
2017-07-01T07:31:25.628Z,21792
2017-07-01T07:33:23.339Z,21536
2017-07-01T07:34:03.760Z,22176
2017-07-01T07:34:44.236Z,22464
2017-07-01T07:35:24.680Z,22304
2017-07-01T07:36:05.124Z,24096
2017-07-01T07:36:45.621Z,23008
2017-07-01T07:37:26.076Z,24992
2017-07-01T07:38:06.526Z,25760
2017-07-01T07:38:47.017Z,25344
2017-07-01T07:39:27.524Z,24832
2017-07-01T07:40:08.000Z,20576
2017-07-01T07:40:48.415Z,22624
2017-07-01T07:41:28.898Z,21600
2017-07-01T07:42:09.399Z,22816
2017-07-01T07:42:49.844Z,24000
2017-07-01T07:43:30.300Z,22592
2017-07-01T07:44:10.748Z,19648
2017-07-01T07:44:51.257Z,23648
2017-07-01T07:45:31.676Z,19040
2017-07-01T07:46:12.171Z,14704
2017-07-01T07:46:52.577Z,14244
2017-07-01T07:47:33.063Z,13656
2017-07-01T07:48:13.500Z,13208
2017-07-01T07:48:54.001Z,13656
2017-07-01T07:49:34.424Z,15868
2017-07-01T07:50:14.864Z,12920
2017-07-01T07:50:55.341Z,12724
2017-07-01T07:51:35.782Z,11660
2017-07-01T07:52:16.284Z,12724
2017-07-01T07:52:56.809Z,15148
2017-07-01T07:53:37.244Z,15692
2017-07-01T07:54:17.698Z,14356
2017-07-01T07:54:58.144Z,15264
2017-07-01T07:55:38.595Z,17568
2017-07-01T07:56:19.072Z,12092
2017-07-01T07:56:59.512Z,11728
2017-07-01T07:57:39.931Z,13352
2017-07-01T07:58:20.398Z,15012
2017-07-01T07:59:00.911Z,17568
2017-07-01T07:59:41.355Z,18144
2017-07-01T08:00:21.761Z,14024
2017-07-01T08:01:02.301Z,12544
2017-07-01T08:01:42.751Z,11836
2017-07-01T08:02:23.210Z,12864
2017-07-01T08:03:03.630Z,18304
2017-07-01T08:03:44.042Z,16380
2017-07-01T08:04:24.507Z,15236
2017-07-01T08:05:04.956Z,16104
2017-07-01T08:05:45.398Z,19712
2017-07-01T08:06:25.857Z,23200
2017-07-01T08:07:06.298Z,29792
2017-07-01T08:07:46.755Z,29472
2017-07-01T08:08:27.228Z,25856
2017-07-01T08:09:07.655Z,28192
2017-07-01T08:09:48.077Z,22144
2017-07-01T08:10:28.535Z,22912
2017-07-01T08:11:08.977Z,17984
2017-07-01T08:11:49.442Z,20448
2017-07-01T08:12:29.884Z,39744
2017-07-01T08:13:10.303Z,47168
2017-07-01T08:13:50.710Z,21888
2017-07-01T08:14:31.147Z,15920
2017-07-01T08:15:11.609Z,15312
2017-07-01T08:15:52.055Z,16996
2017-07-01T08:16:32.547Z,22880
2017-07-01T08:17:13.085Z,22496
2017-07-01T08:17:53.519Z,18400
2017-07-01T08:18:34.002Z,16592
2017-07-01T08:19:14.463Z,23776
2017-07-01T08:19:54.951Z,41984
2017-07-01T08:22:23.006Z,18368
2017-07-01T08:23:03.440Z,19008
2017-07-01T08:23:43.848Z,21312
2017-07-01T08:24:24.321Z,15312
2017-07-01T08:25:04.775Z,13192
2017-07-01T08:25:45.208Z,12352
2017-07-01T08:26:25.651Z,10036
2017-07-01T08:27:06.124Z,8472
2017-07-01T08:27:46.561Z,7780
2017-07-01T08:28:26.976Z,7908
2017-07-01T08:29:07.491Z,8040
2017-07-01T08:29:48.046Z,9936
2017-07-01T08:30:28.510Z,10072
2017-07-01T08:31:08.958Z,9092
2017-07-01T08:31:49.390Z,7740
2017-07-01T08:34:17.373Z,7000
2017-07-01T08:34:57.823Z,6928
2017-07-01T08:35:38.308Z,6308
2017-07-01T08:36:18.771Z,6464
2017-07-01T08:36:59.259Z,7708
2017-07-01T08:37:39.753Z,9616
2017-07-01T08:38:20.217Z,10948
2017-07-01T08:39:00.726Z,9420
2017-07-01T08:39:41.156Z,9200
2017-07-01T08:40:21.611Z,9376
2017-07-01T08:41:02.046Z,9544
2017-07-01T08:41:42.583Z,8920
2017-07-01T08:42:23.042Z,8292
2017-07-01T08:43:03.478Z,8216
2017-07-01T08:43:43.916Z,8132
2017-07-01T08:44:24.328Z,8124
2017-07-01T08:45:04.756Z,7684
2017-07-01T08:45:45.246Z,7976
2017-07-01T08:46:25.649Z,9696
2017-07-01T08:47:06.167Z,10692
2017-07-01T08:47:46.629Z,10244
2017-07-01T08:48:27.077Z,9368
2017-07-01T08:49:07.554Z,7600
2017-07-01T08:49:48.062Z,8368
2017-07-01T08:50:28.526Z,9000
2017-07-01T08:51:08.990Z,7648
2017-07-01T08:51:49.445Z,6364
2017-07-01T08:52:29.904Z,6936
2017-07-01T08:53:10.315Z,7780
2017-07-01T08:53:50.776Z,7740
2017-07-01T08:54:31.221Z,7164
2017-07-01T08:55:11.649Z,6572
2017-07-01T08:55:52.108Z,6684
2017-07-01T08:57:50.058Z,5272
2017-07-01T08:58:30.581Z,4832
2017-07-01T08:59:11.017Z,5408
2017-07-01T08:59:51.474Z,6844
2017-07-01T09:00:31.962Z,7644
2017-07-01T09:01:12.492Z,7896
2017-07-01T09:01:52.980Z,8252
2017-07-01T09:02:33.497Z,8372
2017-07-01T09:03:13.976Z,7360
2017-07-01T09:03:54.423Z,11544
2017-07-01T09:04:34.883Z,14400
2017-07-01T09:07:03.019Z,7900
2017-07-01T09:07:43.581Z,7412
2017-07-01T09:08:24.069Z,7108
2017-07-01T09:09:04.503Z,7448
2017-07-01T09:09:45.220Z,7128
2017-07-01T09:10:25.621Z,9480
2017-07-01T09:11:06.041Z,12168
2017-07-01T09:11:46.494Z,12828
2017-07-01T09:12:26.960Z,12020
2017-07-01T09:13:07.412Z,11356
2017-07-01T09:13:47.875Z,10720
2017-07-01T09:14:28.467Z,10240
2017-07-01T09:15:08.944Z,8740
2017-07-01T09:15:49.418Z,8932
2017-07-01T09:18:22.483Z,12992
2017-07-01T09:19:02.954Z,13708
2017-07-01T09:19:43.517Z,13732
2017-07-01T09:20:23.862Z,12752
2017-07-01T09:21:04.374Z,12240
2017-07-01T09:21:44.850Z,11780
2017-07-01T09:22:25.263Z,11824
2017-07-01T09:23:05.724Z,11320
2017-07-01T09:23:46.230Z,10828
2017-07-01T09:24:26.693Z,10500
2017-07-01T09:26:59.727Z,10428
2017-07-01T09:27:40.268Z,10576
2017-07-01T09:28:20.645Z,10564
2017-07-01T09:29:01.091Z,10564
2017-07-01T09:29:41.560Z,10404
2017-07-01T09:30:22.003Z,10436
2017-07-01T09:31:02.413Z,10756
2017-07-01T09:31:42.895Z,11572
2017-07-01T09:32:23.352Z,12188
2017-07-01T09:33:03.841Z,12996
2017-07-01T09:33:44.273Z,14380
2017-07-01T09:34:24.771Z,15276
2017-07-01T09:36:22.535Z,15984
2017-07-01T09:37:03.024Z,15772
2017-07-01T09:37:43.494Z,15616
2017-07-01T09:38:23.932Z,15080
2017-07-01T09:39:04.391Z,15000
2017-07-01T09:39:44.873Z,15408
2017-07-01T09:40:25.327Z,16076
2017-07-01T09:41:05.846Z,16304
2017-07-01T09:41:46.257Z,17020
2017-07-01T09:42:26.788Z,18016
2017-07-01T09:43:07.232Z,18848
2017-07-01T09:43:47.698Z,20512
2017-07-01T09:44:28.180Z,21856
2017-07-01T09:45:08.643Z,21984
2017-07-01T09:45:49.142Z,21472
2017-07-01T09:46:29.646Z,20096
2017-07-01T09:47:10.110Z,18016
2017-07-01T09:47:50.551Z,15384
2017-07-01T09:48:31.049Z,13452
2017-07-01T09:49:11.486Z,12208
2017-07-01T09:49:51.932Z,11096
2017-07-01T09:50:32.396Z,10412
2017-07-01T09:51:12.859Z,10000
2017-07-01T09:51:53.293Z,9788
2017-07-01T09:52:33.740Z,9828
2017-07-01T09:53:14.259Z,9984
2017-07-01T09:53:54.669Z,10448
2017-07-01T09:54:35.151Z,11276
2017-07-01T09:55:15.589Z,12600
2017-07-01T09:55:56.032Z,13084
2017-07-01T09:56:36.505Z,12936
2017-07-01T09:57:16.920Z,12752
2017-07-01T09:57:57.374Z,12548
2017-07-01T09:58:37.786Z,11704
2017-07-01T09:59:18.266Z,11112
2017-07-01T09:59:58.702Z,10260
2017-07-01T10:00:39.153Z,9664
2017-07-01T10:01:19.725Z,9296
2017-07-01T10:02:00.203Z,9296
2017-07-01T10:02:40.622Z,9820
2017-07-01T10:03:21.085Z,10404
2017-07-01T10:04:01.550Z,10740